Time;durP1;ratioP1;P1;durP2;ratioP2;P2;SDS_P1;SDS_P2;PMS_P1;PMS_P2;Temp;Humidity;BMP_temperature;BMP_pressure;BME280_temperature;BME280_humidity;BME280_pressure;Samples;Min_cycle;Max_cycle;Signal;HPM_P1;HPM_P2
2023/09/20 00:04:05;;;;;;;;;;;;;;;19.08;82.23;99548.06;12206097;19;19907;-83
2023/09/20 00:08:07;;;;;;;;;;;;;;;19.13;81.90;99549.94;12172173;19;19938;-84
2023/09/20 00:12:09;;;;;;;;;;;;;;;19.17;81.93;99545.38;12191141;19;19911;-84
2023/09/20 00:16:11;;;;;;;;;;;;;;;19.16;81.60;99548.50;12195314;19;19934;-84
2023/09/20 00:20:13;;;;;;;;;;;;;;;19.19;81.78;99539.50;12170499;19;19915;-83
2023/09/20 00:24:15;;;;;;;;;;;;;;;19.18;81.88;99532.22;12194933;19;19966;-86
2023/09/20 00:28:17;;;;;;;;;;;;;;;19.19;81.59;99536.69;12190269;19;20309;-83
2023/09/20 00:32:19;;;;;;;;;;;;;;;19.19;81.64;99522.72;12167912;19;20363;-83
2023/09/20 00:36:21;;;;;;;;;;;;;;;19.24;81.06;99522.59;12191820;19;19907;-81
2023/09/20 00:40:23;;;;;;;;;;;;;;;19.24;81.38;99523.41;12193528;19;19907;-82
2023/09/20 00:44:25;;;;;;;;;;;;;;;19.21;81.28;99523.22;12174312;19;19914;-85
2023/09/20 00:48:29;;;;;;;;;;;;;;;19.19;81.18;99515.16;12191944;19;19906;-82
2023/09/20 00:52:31;;;;;;;;;;;;;;;19.20;81.35;99519.59;12189425;19;19906;-83
2023/09/20 00:56:33;;;;;;;;;;;;;;;19.15;81.77;99518.91;12175539;19;19927;-83
2023/09/20 01:00:37;;;;;;;;;;;;;;;19.13;81.85;99514.47;12197635;19;19917;-82
2023/09/20 01:04:40;;;;;;;;;;;;;;;19.07;82.20;99515.72;12200237;19;20247;-83
2023/09/20 01:08:43;;;;;;;;;;;;;;;19.07;82.25;99507.34;12176930;19;19914;-84
2023/09/20 01:12:45;;;;;;;;;;;;;;;19.12;82.00;99514.75;12175300;19;19914;-83
2023/09/20 01:16:47;;;;;;;;;;;;;;;19.10;82.19;99517.88;12185225;19;20272;-81
2023/09/20 01:20:49;;;;;;;;;;;;;;;19.11;82.00;99519.53;12160943;19;19915;-84
2023/09/20 01:24:51;;;;;;;;;;;;;;;19.12;82.56;99526.75;12187809;19;19936;-82
2023/09/20 01:28:52;;;;;;;;;;;;;;;19.09;82.65;99521.78;12162828;19;19906;-82
2023/09/20 01:32:55;;;;;;;;;;;;;;;19.10;82.59;99520.66;12178337;19;19932;-83
2023/09/20 01:36:57;;;;;;;;;;;;;;;19.05;83.91;99529.16;12195451;19;19935;-81
2023/09/20 01:40:58;;;;;;;;;;;;;;;19.03;84.41;99525.84;12173923;19;19991;-82
2023/09/20 01:45:00;;;;;;;;;;;;;;;19.02;84.67;99515.00;12196570;19;20325;-81
2023/09/20 01:49:05;;;;;;;;;;;;;;;18.99;85.14;99516.44;12197382;19;19911;-81
2023/09/20 01:53:11;;;;;;;;;;;;;;;18.97;85.53;99510.34;12175367;19;19917;-82
2023/09/20 01:57:14;;;;;;;;;;;;;;;18.95;85.72;99515.44;12205243;19;19938;-81
2023/09/20 02:01:17;;;;;;;;;;;;;;;18.95;85.88;99509.84;12195415;19;19918;-81
2023/09/20 02:05:18;;;;;;;;;;;;;;;18.95;86.33;99503.41;12176838;19;19982;-80
2023/09/20 02:09:20;;;;;;;;;;;;;;;18.86;87.34;99498.59;12198514;19;19935;-85
2023/09/20 02:13:22;;;;;;;;;;;;;;;18.81;87.54;99486.72;12201340;19;19923;-81
2023/09/20 02:17:26;;;;;;;;;;;;;;;18.75;88.17;99488.78;12183759;19;19907;-82
2023/09/20 02:21:28;;;;;;;;;;;;;;;18.73;88.34;99493.84;12197514;19;20371;-80
2023/09/20 02:25:29;;;;;;;;;;;;;;;18.72;88.45;99502.50;12230012;19;19931;-84
2023/09/20 02:29:32;;;;;;;;;;;;;;;18.68;89.38;99502.31;12193994;19;19918;-84
2023/09/20 02:33:34;;;;;;;;;;;;;;;18.72;89.37;99508.09;12213692;19;20649;-81
2023/09/20 02:37:36;;;;;;;;;;;;;;;18.69;89.41;99509.53;12215823;19;19930;-84
2023/09/20 02:41:38;;;;;;;;;;;;;;;18.70;88.82;99502.81;12209145;19;19917;-81
2023/09/20 02:45:44;;;;;;;;;;;;;;;18.66;89.59;99499.00;12235407;19;19910;-85
2023/09/20 02:49:48;;;;;;;;;;;;;;;18.68;88.93;99494.75;12227968;19;19982;-81
2023/09/20 02:53:50;;;;;;;;;;;;;;;18.67;88.75;99487.50;12215444;19;19918;-82
2023/09/20 02:57:52;;;;;;;;;;;;;;;18.65;89.05;99489.78;12247722;19;19926;-83
2023/09/20 03:01:54;;;;;;;;;;;;;;;18.67;88.58;99472.72;12218410;19;19907;-83
2023/09/20 03:06:06;;;;;;;;;;;;;;;18.67;88.87;99476.34;12213178;19;20350;-82
2023/09/20 03:10:12;;;;;;;;;;;;;;;18.63;88.90;99469.72;12214981;19;19911;-82
2023/09/20 03:14:14;;;;;;;;;;;;;;;18.59;89.48;99473.44;12190674;19;19915;-83
2023/09/20 03:18:15;;;;;;;;;;;;;;;18.59;89.31;99476.25;12214209;19;19911;-81
2023/09/20 03:22:24;;;;;;;;;;;;;;;18.57;89.80;99470.16;12206105;19;19922;-82
2023/09/20 03:26:27;;;;;;;;;;;;;;;18.58;89.49;99466.22;12191462;19;19939;-84
2023/09/20 03:30:31;;;;;;;;;;;;;;;18.53;90.12;99453.22;12209374;19;19915;-82
2023/09/20 03:34:33;;;;;;;;;;;;;;;18.51;90.37;99454.66;12213322;19;19919;-82
2023/09/20 03:38:35;;;;;;;;;;;;;;;18.47;90.12;99457.22;12188092;19;19960;-81
2023/09/20 03:42:39;;;;;;;;;;;;;;;18.39;91.06;99447.66;12210345;19;19903;-82
2023/09/20 03:46:41;;;;;;;;;;;;;;;18.35;91.11;99442.97;12205777;19;19911;-81
2023/09/20 03:50:45;;;;;;;;;;;;;;;18.30;92.21;99443.09;12184945;19;19918;-81
2023/09/20 03:54:51;;;;;;;;;;;;;;;18.30;92.14;99443.94;12205749;19;19927;-82
2023/09/20 03:58:53;;;;;;;;;;;;;;;18.26;92.48;99447.63;12185548;19;19914;-81
2023/09/20 04:02:56;;;;;;;;;;;;;;;18.23;92.86;99449.06;12202570;19;20345;-82
2023/09/20 04:06:59;;;;;;;;;;;;;;;18.22;93.15;99439.88;12204017;19;19907;-81
2023/09/20 04:11:00;;;;;;;;;;;;;;;18.20;93.49;99444.13;12179965;19;19943;-81
2023/09/20 04:15:04;;;;;;;;;;;;;;;18.18;93.23;99444.44;12205576;19;19911;-81
2023/09/20 04:19:06;;;;;;;;;;;;;;;18.20;93.43;99439.41;12204408;19;19911;-81
2023/09/20 04:23:10;;;;;;;;;;;;;;;18.21;93.81;99437.41;12180221;19;20398;-81
2023/09/20 04:27:15;;;;;;;;;;;;;;;18.16;93.54;99427.19;12203230;19;20331;-81
2023/09/20 04:31:17;;;;;;;;;;;;;;;18.17;94.78;99431.66;12200147;19;20006;-81
2023/09/20 04:35:19;;;;;;;;;;;;;;;18.20;94.43;99432.97;12181968;19;20407;-81
2023/09/20 04:39:21;;;;;;;;;;;;;;;18.20;94.29;99435.75;12205836;19;19914;-81
2023/09/20 04:43:23;;;;;;;;;;;;;;;18.13;94.90;99429.78;12204112;19;20275;-81
2023/09/20 04:47:25;;;;;;;;;;;;;;;18.08;95.70;99436.25;12186116;19;19907;-80
2023/09/20 04:51:27;;;;;;;;;;;;;;;18.08;96.54;99427.91;12207510;19;19922;-82
2023/09/20 04:55:29;;;;;;;;;;;;;;;18.07;95.70;99434.63;12213841;19;20427;-82
2023/09/20 04:59:31;;;;;;;;;;;;;;;18.13;94.73;99432.56;12189548;19;19933;-84
2023/09/20 05:03:34;;;;;;;;;;;;;;;18.14;94.55;99423.06;12201715;19;20606;-83
2023/09/20 05:07:37;;;;;;;;;;;;;;;18.17;94.72;99434.44;12201967;19;20346;-81
2023/09/20 05:11:38;;;;;;;;;;;;;;;18.17;94.00;99431.66;12181038;19;19974;-82
2023/09/20 05:15:40;;;;;;;;;;;;;;;18.21;93.29;99441.03;12202046;19;19922;-83
2023/09/20 05:19:42;;;;;;;;;;;;;;;18.25;93.18;99441.22;12201493;19;19937;-83
2023/09/20 05:23:44;;;;;;;;;;;;;;;18.30;93.19;99440.31;12178510;19;20439;-80
2023/09/20 05:27:46;;;;;;;;;;;;;;;18.28;93.02;99435.03;12196100;19;20326;-82
2023/09/20 05:31:49;;;;;;;;;;;;;;;18.31;93.87;99436.38;12192443;19;20430;-80
2023/09/20 05:35:52;;;;;;;;;;;;;;;18.28;93.67;99426.66;12176110;19;20349;-85
2023/09/20 05:39:53;;;;;;;;;;;;;;;18.30;93.21;99424.41;12199604;19;19996;-81
2023/09/20 05:43:55;;;;;;;;;;;;;;;18.30;93.27;99421.63;12181072;19;20553;-83
2023/09/20 05:47:58;;;;;;;;;;;;;;;18.32;92.94;99426.88;12199921;19;19920;-80
2023/09/20 05:52:02;;;;;;;;;;;;;;;18.35;92.95;99424.31;12198391;19;19911;-83
2023/09/20 05:56:05;;;;;;;;;;;;;;;18.44;93.40;99421.59;12170025;19;19921;-82
2023/09/20 06:00:12;;;;;;;;;;;;;;;18.45;93.64;99426.88;12178908;19;20349;-81
2023/09/20 06:04:14;;;;;;;;;;;;;;;18.54;92.99;99428.94;12199570;19;19911;-82
2023/09/20 06:08:15;;;;;;;;;;;;;;;18.61;91.78;99432.13;12180552;19;19910;-80
2023/09/20 06:12:17;;;;;;;;;;;;;;;18.70;91.78;99440.56;12203101;19;19911;-80
2023/09/20 06:16:19;;;;;;;;;;;;;;;18.76;91.58;99442.16;12206678;19;19931;-79
2023/09/20 06:20:21;;;;;;;;;;;;;;;18.81;91.13;99442.03;12181662;19;19910;-82
2023/09/20 06:24:23;;;;;;;;;;;;;;;18.90;92.12;99446.56;12209009;19;19966;-80
2023/09/20 06:28:27;;;;;;;;;;;;;;;18.94;91.45;99452.34;12216456;19;19914;-81
2023/09/20 06:32:30;;;;;;;;;;;;;;;18.98;90.27;99446.97;12184977;19;19922;-81
2023/09/20 06:36:31;;;;;;;;;;;;;;;18.99;89.63;99455.03;12216915;19;19918;-80
2023/09/20 06:40:39;;;;;;;;;;;;;;;19.05;89.27;99450.16;12211201;19;20414;-81
2023/09/20 06:44:44;;;;;;;;;;;;;;;19.13;88.56;99443.81;12190432;19;19926;-79
2023/09/20 06:48:46;;;;;;;;;;;;;;;19.25;88.91;99441.28;12213706;19;19903;-80
2023/09/20 06:52:48;;;;;;;;;;;;;;;19.31;87.80;99442.81;12214054;19;19914;-80
2023/09/20 06:56:50;;;;;;;;;;;;;;;19.40;87.09;99437.28;12195974;19;19914;-80
2023/09/20 07:00:52;;;;;;;;;;;;;;;19.51;87.24;99440.63;12212186;19;19922;-82
2023/09/20 07:04:55;;;;;;;;;;;;;;;19.62;86.81;99436.44;12215370;19;19950;-81
2023/09/20 07:08:57;;;;;;;;;;;;;;;19.76;86.94;99430.81;12185335;19;19910;-83
2023/09/20 07:13:00;;;;;;;;;;;;;;;19.83;85.41;99428.38;12222030;19;20358;-79
2023/09/20 07:17:03;;;;;;;;;;;;;;;19.95;85.07;99423.00;12224291;19;19951;-83
2023/09/20 07:21:07;;;;;;;;;;;;;;;20.01;84.06;99423.69;12194628;19;19907;-80
2023/09/20 07:25:16;;;;;;;;;;;;;;;20.10;83.92;99434.91;12215620;19;19933;-83
2023/09/20 07:29:18;;;;;;;;;;;;;;;20.11;82.73;99428.16;12194706;19;19938;-80
2023/09/20 07:33:23;;;;;;;;;;;;;;;20.14;82.57;99424.75;12211543;19;19919;-80
2023/09/20 07:37:27;;;;;;;;;;;;;;;20.18;82.27;99429.34;12215308;19;19921;-81
2023/09/20 07:41:28;;;;;;;;;;;;;;;20.22;82.60;99426.72;12191525;19;19918;-84
2023/09/20 07:45:38;;;;;;;;;;;;;;;20.26;82.46;99431.38;12213051;19;19911;-80
2023/09/20 07:49:40;;;;;;;;;;;;;;;20.21;82.33;99434.31;12214853;19;19914;-81
2023/09/20 07:53:41;;;;;;;;;;;;;;;20.21;82.23;99427.91;12192018;19;19907;-83
2023/09/20 07:57:43;;;;;;;;;;;;;;;20.23;82.45;99425.59;12217889;19;19915;-80
2023/09/20 08:01:45;;;;;;;;;;;;;;;20.32;83.40;99426.47;12209923;19;19943;-79
2023/09/20 08:05:50;;;;;;;;;;;;;;;20.44;83.20;99421.06;12189844;19;19914;-79
2023/09/20 08:09:54;;;;;;;;;;;;;;;20.73;82.64;99419.66;12211643;19;19913;-84
2023/09/20 08:13:57;;;;;;;;;;;;;;;21.02;81.68;99412.59;12213804;19;19911;-80
2023/09/20 08:22:20;;;;;;;;;;;;;;;21.35;77.04;99405.31;12210895;19;19921;-83
2023/09/20 09:01:10;;;;;;;;;;;;;;;22.68;73.69;99414.63;12210676;19;19950;-83
2023/09/20 09:05:12;;;;;;;;;;;;;;;22.72;71.88;99403.53;12190102;19;19911;-82
2023/09/20 09:09:14;;;;;;;;;;;;;;;23.03;72.17;99399.53;12207268;19;19917;-82
2023/09/20 09:13:16;;;;;;;;;;;;;;;23.37;71.62;99399.22;12214706;19;19941;-82
2023/09/20 09:17:18;;;;;;;;;;;;;;;23.27;66.66;99404.47;12189109;19;19914;-82
2023/09/20 09:21:20;;;;;;;;;;;;;;;23.20;67.33;99405.00;12209882;19;19915;-82
2023/09/20 09:25:25;;;;;;;;;;;;;;;23.57;67.15;99397.53;12210435;19;20275;-83
2023/09/20 09:29:27;;;;;;;;;;;;;;;23.81;64.36;99399.63;12190518;19;20068;-83
2023/09/20 09:33:29;;;;;;;;;;;;;;;23.69;64.83;99398.75;12207300;19;19922;-83
2023/09/20 09:37:31;;;;;;;;;;;;;;;23.84;65.16;99400.91;12211373;19;19911;-82
2023/09/20 09:41:40;;;;;;;;;;;;;;;24.05;61.51;99384.75;12187604;19;19907;-84
2023/09/20 09:45:44;;;;;;;;;;;;;;;24.44;61.67;99379.63;12220666;19;19910;-82
2023/09/20 09:49:50;;;;;;;;;;;;;;;24.77;59.28;99371.00;12212460;19;19914;-83
2023/09/20 09:53:52;;;;;;;;;;;;;;;24.49;60.23;99375.78;12189411;19;19990;-84
2023/09/20 09:57:54;;;;;;;;;;;;;;;24.37;60.80;99375.75;12215961;19;19922;-86
2023/09/20 10:01:57;;;;;;;;;;;;;;;24.31;59.83;99375.16;12209462;19;19914;-82
2023/09/20 10:05:59;;;;;;;;;;;;;;;23.93;59.06;99364.25;12191100;19;20350;-82
2023/09/20 10:10:08;;;;;;;;;;;;;;;23.60;61.63;99373.53;12207736;19;20266;-82
2023/09/20 10:14:11;;;;;;;;;;;;;;;23.58;62.77;99368.22;12196279;19;19903;-82
2023/09/20 10:18:14;;;;;;;;;;;;;;;24.18;62.27;99353.81;12216695;19;20365;-83
2023/09/20 10:22:18;;;;;;;;;;;;;;;24.83;60.52;99360.31;12210199;19;19919;-86
2023/09/20 10:26:21;;;;;;;;;;;;;;;25.22;58.19;99341.78;12183282;19;19914;-83
2023/09/20 10:30:23;;;;;;;;;;;;;;;25.11;57.00;99351.91;12202185;19;19910;-83
2023/09/20 10:34:26;;;;;;;;;;;;;;;25.24;57.96;99333.75;12209779;19;19956;-82
2023/09/20 10:38:30;;;;;;;;;;;;;;;25.99;57.13;99342.63;12189959;19;19904;-87
2023/09/20 10:42:32;;;;;;;;;;;;;;;26.31;55.34;99329.28;12203485;19;19935;-83
2023/09/20 10:46:35;;;;;;;;;;;;;;;26.63;52.37;99327.25;12205563;19;19915;-85
2023/09/20 10:50:47;;;;;;;;;;;;;;;27.02;52.80;99325.25;12189982;19;19930;-83
2023/09/20 10:54:50;;;;;;;;;;;;;;;27.38;50.23;99326.00;12201882;19;19932;-83
2023/09/20 10:58:52;;;;;;;;;;;;;;;27.25;48.67;99325.34;12210064;19;19935;-85
2023/09/20 11:02:55;;;;;;;;;;;;;;;27.46;49.30;99329.81;12169528;19;19927;-83
2023/09/20 11:06:59;;;;;;;;;;;;;;;27.77;48.80;99316.59;12188705;19;19918;-81
2023/09/20 11:11:02;;;;;;;;;;;;;;;27.91;45.98;99319.72;12206735;19;19914;-82
2023/09/20 11:15:05;;;;;;;;;;;;;;;27.76;47.37;99315.78;12191091;19;20323;-87
2023/09/20 11:19:09;;;;;;;;;;;;;;;27.77;46.65;99311.75;12197281;19;20359;-82
2023/09/20 11:23:12;;;;;;;;;;;;;;;27.90;46.02;99306.72;12188278;19;19915;-82
2023/09/20 11:27:14;;;;;;;;;;;;;;;27.87;45.06;99301.84;12211050;19;19906;-85
2023/09/20 11:31:27;;;;;;;;;;;;;;;27.63;45.39;99300.16;12212182;19;19919;-84
2023/09/20 11:35:33;;;;;;;;;;;;;;;27.44;46.18;99309.53;12189236;19;19918;-83
2023/09/20 11:39:35;;;;;;;;;;;;;;;27.03;46.70;99303.44;12213307;19;19923;-81
2023/09/20 11:43:39;;;;;;;;;;;;;;;26.73;47.35;99289.91;12210818;19;19981;-83
2023/09/20 11:47:43;;;;;;;;;;;;;;;26.51;47.75;99277.34;12186802;19;19939;-83
2023/09/20 11:51:45;;;;;;;;;;;;;;;26.52;49.42;99272.50;12208149;19;19949;-85
2023/09/20 11:55:47;;;;;;;;;;;;;;;26.91;47.55;99273.31;12209467;19;19970;-84
2023/09/20 11:59:49;;;;;;;;;;;;;;;27.00;48.63;99271.09;12177297;19;19982;-85
2023/09/20 12:03:51;;;;;;;;;;;;;;;27.09;48.37;99268.03;12203048;19;19922;-84
2023/09/20 12:07:56;;;;;;;;;;;;;;;27.16;48.01;99262.56;12205279;19;20339;-84
2023/09/20 12:11:58;;;;;;;;;;;;;;;27.12;47.91;99267.28;12181944;19;19918;-86
2023/09/20 12:16:00;;;;;;;;;;;;;;;27.11;47.78;99264.84;12213407;19;19911;-85
2023/09/20 12:20:04;;;;;;;;;;;;;;;27.54;46.79;99243.81;12210449;19;19933;-87
2023/09/20 12:24:06;;;;;;;;;;;;;;;29.19;45.13;99232.84;12180711;19;19911;-83
2023/09/20 12:28:08;;;;;;;;;;;;;;;30.65;40.69;99227.50;12202876;19;21584;-84
2023/09/20 12:32:11;;;;;;;;;;;;;;;31.78;40.25;99211.09;12182067;19;19925;-84
2023/09/20 12:36:13;;;;;;;;;;;;;;;32.42;38.05;99193.09;12205295;19;19910;-84
2023/09/20 12:40:17;;;;;;;;;;;;;;;32.15;38.38;99189.06;12205278;19;19914;-84
2023/09/20 12:44:20;;;;;;;;;;;;;;;31.57;37.83;99194.00;12184343;19;20297;-85
2023/09/20 12:48:22;;;;;;;;;;;;;;;30.94;39.71;99178.47;12210618;19;19915;-86
2023/09/20 12:52:24;;;;;;;;;;;;;;;30.92;39.02;99172.34;12207375;19;19915;-84
2023/09/20 12:56:27;;;;;;;;;;;;;;;31.83;37.60;99163.47;12186912;19;19915;-84
2023/09/20 13:00:29;;;;;;;;;;;;;;;32.82;36.15;99147.28;12204440;19;19911;-86
2023/09/20 13:04:47;;;;;;;;;;;;;;;32.95;35.29;99141.91;12203063;19;20337;-86
2023/09/20 13:08:51;;;;;;;;;;;;;;;32.05;36.56;99130.88;12181934;19;19907;-87
2023/09/20 13:12:53;;;;;;;;;;;;;;;30.89;37.94;99125.63;12199386;19;19919;-84
2023/09/20 13:16:55;;;;;;;;;;;;;;;30.20;38.48;99123.72;12204805;19;19962;-86
2023/09/20 13:21:00;;;;;;;;;;;;;;;29.49;39.50;99113.53;12181109;19;19931;-86
2023/09/20 13:25:14;;;;;;;;;;;;;;;28.82;40.06;99117.41;12201600;19;19915;-82
2023/09/20 13:29:20;;;;;;;;;;;;;;;28.63;40.39;99097.75;12185618;19;21264;-83
2023/09/20 13:33:22;;;;;;;;;;;;;;;28.98;40.23;99099.31;12203789;19;19910;-83
2023/09/20 13:37:24;;;;;;;;;;;;;;;28.87;39.69;99090.69;12205089;19;19911;-83
2023/09/20 13:41:26;;;;;;;;;;;;;;;28.50;40.01;99091.53;12182782;19;19911;-84
2023/09/20 13:45:28;;;;;;;;;;;;;;;29.02;40.28;99091.66;12206754;19;19907;-85
2023/09/20 13:49:30;;;;;;;;;;;;;;;29.65;39.02;99089.72;12203278;19;20302;-83
2023/09/20 13:53:32;;;;;;;;;;;;;;;29.34;38.22;99086.25;12202023;19;20344;-84
2023/09/20 13:57:34;;;;;;;;;;;;;;;28.68;38.66;99079.56;12187044;19;19922;-84
2023/09/20 14:01:38;;;;;;;;;;;;;;;28.15;40.05;99075.72;12202360;19;19915;-82
2023/09/20 14:05:40;;;;;;;;;;;;;;;27.72;39.97;99075.13;12181314;19;19906;-84
2023/09/20 14:09:42;;;;;;;;;;;;;;;27.47;40.83;99063.44;12203124;19;20320;-86
2023/09/20 14:13:44;;;;;;;;;;;;;;;27.27;40.63;99059.09;12199361;19;19911;-86
2023/09/20 14:17:47;;;;;;;;;;;;;;;27.05;41.96;99063.56;12183122;19;19907;-83
2023/09/20 14:21:50;;;;;;;;;;;;;;;26.96;41.13;99049.69;12203660;19;19911;-85
2023/09/20 14:25:51;;;;;;;;;;;;;;;26.87;40.85;99056.78;12229330;19;19918;-83
2023/09/20 14:29:54;;;;;;;;;;;;;;;27.10;40.96;99037.81;12182624;19;19929;-83
2023/09/20 14:33:55;;;;;;;;;;;;;;;27.63;40.72;99037.78;12200883;19;20391;-83
2023/09/20 14:37:57;;;;;;;;;;;;;;;28.35;39.71;99030.22;12216773;19;19906;-85
2023/09/20 14:41:59;;;;;;;;;;;;;;;28.87;37.84;99019.78;12209754;19;19914;-87
2023/09/20 14:46:01;;;;;;;;;;;;;;;29.30;36.87;99017.31;12232850;19;20386;-84
2023/09/20 14:50:03;;;;;;;;;;;;;;;29.28;36.88;99019.75;12241936;19;20779;-83
2023/09/20 14:54:05;;;;;;;;;;;;;;;29.09;37.73;99006.63;12211560;19;19926;-82
2023/09/20 14:58:08;;;;;;;;;;;;;;;28.57;37.07;99011.44;12230058;19;21231;-85
2023/09/20 15:02:10;;;;;;;;;;;;;;;28.02;38.05;99012.06;12209677;19;19921;-81
2023/09/20 15:06:16;;;;;;;;;;;;;;;27.68;38.90;99000.66;12183243;19;19935;-83
2023/09/20 15:10:19;;;;;;;;;;;;;;;27.49;39.00;98998.81;12217013;19;19920;-82
2023/09/20 15:14:21;;;;;;;;;;;;;;;27.31;39.37;98991.25;12215055;19;19986;-83
2023/09/20 15:18:24;;;;;;;;;;;;;;;27.20;39.52;99003.22;12198166;19;19915;-82
2023/09/20 15:22:30;;;;;;;;;;;;;;;27.32;39.36;98978.75;12213374;19;20815;-85
2023/09/20 15:26:35;;;;;;;;;;;;;;;27.22;39.95;98975.41;12220045;19;19938;-83
2023/09/20 15:30:39;;;;;;;;;;;;;;;27.02;39.96;98973.84;12190677;19;19930;-83
2023/09/20 15:34:42;;;;;;;;;;;;;;;26.80;39.59;98962.22;12216238;19;19915;-82
2023/09/20 15:38:46;;;;;;;;;;;;;;;26.65;39.71;98959.50;12213715;19;19923;-82
2023/09/20 15:42:48;;;;;;;;;;;;;;;26.42;40.66;98951.03;12195404;19;19911;-82
2023/09/20 15:46:50;;;;;;;;;;;;;;;26.32;40.24;98956.09;12210608;19;19925;-82
2023/09/20 15:50:52;;;;;;;;;;;;;;;26.25;40.84;98961.63;12189513;19;19934;-81
2023/09/20 15:54:53;;;;;;;;;;;;;;;26.18;40.54;98953.03;12209129;19;20429;-82
2023/09/20 15:58:57;;;;;;;;;;;;;;;26.19;40.45;98951.84;12207514;19;20302;-81
2023/09/20 16:02:59;;;;;;;;;;;;;;;26.28;39.80;98941.13;12187056;19;20351;-82
2023/09/20 16:07:03;;;;;;;;;;;;;;;26.21;40.43;98938.16;12208626;19;19919;-80
2023/09/20 16:11:05;;;;;;;;;;;;;;;26.14;40.40;98938.03;12206910;19;19919;-82
2023/09/20 16:15:09;;;;;;;;;;;;;;;25.99;40.31;98933.31;12182617;19;20276;-83
2023/09/20 16:19:11;;;;;;;;;;;;;;;25.81;40.72;98927.28;12209385;19;20288;-82
2023/09/20 16:23:13;;;;;;;;;;;;;;;25.66;41.25;98918.53;12209641;19;19923;-82
2023/09/20 16:27:15;;;;;;;;;;;;;;;25.54;41.59;98926.34;12196577;19;19959;-82
2023/09/20 16:31:16;;;;;;;;;;;;;;;25.45;41.53;98915.28;12209239;19;19915;-81
2023/09/20 16:35:20;;;;;;;;;;;;;;;25.32;41.06;98922.28;12216825;19;19915;-83
2023/09/20 16:39:23;;;;;;;;;;;;;;;25.26;41.82;98924.56;12184842;19;19922;-82
2023/09/20 16:43:26;;;;;;;;;;;;;;;25.14;42.15;98916.25;12205183;19;19927;-81
2023/09/20 16:47:27;;;;;;;;;;;;;;;24.92;42.29;98918.53;12206870;19;19934;-82
2023/09/20 16:51:29;;;;;;;;;;;;;;;24.83;42.00;98919.94;12183701;19;19903;-82
2023/09/20 16:55:31;;;;;;;;;;;;;;;24.74;42.23;98908.88;12209886;19;19915;-82
2023/09/20 16:59:36;;;;;;;;;;;;;;;24.58;42.84;98914.53;12210941;19;19918;-81
2023/09/20 17:03:37;;;;;;;;;;;;;;;24.44;43.23;98906.53;12188542;19;19918;-82
2023/09/20 17:07:39;;;;;;;;;;;;;;;24.30;43.81;98903.34;12205609;19;19967;-81
2023/09/20 17:11:41;;;;;;;;;;;;;;;24.18;43.81;98907.06;12210042;19;20259;-81
2023/09/20 17:15:43;;;;;;;;;;;;;;;23.97;45.49;98906.50;12179798;19;19934;-81
2023/09/20 17:19:44;;;;;;;;;;;;;;;23.63;47.25;98905.97;12207245;19;19931;-82
2023/09/20 17:23:46;;;;;;;;;;;;;;;23.29;49.28;98907.38;12226195;19;19927;-82
2023/09/20 17:27:50;;;;;;;;;;;;;;;22.96;50.83;98903.63;12218030;19;20182;-83
2023/09/20 17:31:56;;;;;;;;;;;;;;;22.62;52.75;98890.06;12232884;19;19946;-84
2023/09/20 17:35:59;;;;;;;;;;;;;;;22.31;54.67;98888.69;12209737;19;19914;-83
2023/09/20 17:40:02;;;;;;;;;;;;;;;22.04;56.74;98901.34;12225486;19;21714;-83
2023/09/20 17:44:04;;;;;;;;;;;;;;;21.78;57.82;98896.06;12206694;19;19954;-83
2023/09/20 17:48:05;;;;;;;;;;;;;;;21.59;59.09;98903.03;12187737;19;19926;-82
2023/09/20 17:52:11;;;;;;;;;;;;;;;21.41;59.78;98909.13;12208128;19;19925;-82
2023/09/20 17:56:13;;;;;;;;;;;;;;;21.25;60.46;98906.94;12205371;19;19906;-82
2023/09/20 18:00:15;;;;;;;;;;;;;;;21.10;61.29;98907.56;12184766;19;20250;-82
2023/09/20 18:04:18;;;;;;;;;;;;;;;20.98;61.89;98910.28;12201146;19;20830;-82
2023/09/20 18:08:20;;;;;;;;;;;;;;;20.85;63.28;98904.63;12204444;19;19918;-82
2023/09/20 18:12:22;;;;;;;;;;;;;;;20.77;65.03;98913.91;12183195;19;19987;-82
2023/09/20 18:16:24;;;;;;;;;;;;;;;20.69;64.98;98921.19;12203980;19;19994;-82
2023/09/20 18:20:27;;;;;;;;;;;;;;;20.59;65.88;98915.97;12202438;19;20338;-83
2023/09/20 18:24:29;;;;;;;;;;;;;;;20.52;66.97;98915.69;12186155;19;19917;-83
2023/09/20 18:28:31;;;;;;;;;;;;;;;20.43;67.35;98912.88;12206118;19;19911;-82
2023/09/20 18:32:33;;;;;;;;;;;;;;;20.35;68.64;98908.19;12203367;19;19914;-82
2023/09/20 18:36:35;;;;;;;;;;;;;;;20.29;70.61;98926.31;12178798;19;19919;-82
2023/09/20 18:40:37;;;;;;;;;;;;;;;20.23;70.52;98925.69;12207923;19;19931;-82
2023/09/20 18:44:43;;;;;;;;;;;;;;;20.18;71.69;98916.66;12203369;19;20243;-83
2023/09/20 18:48:46;;;;;;;;;;;;;;;20.14;71.02;98921.28;12156675;19;20028;-83
2023/09/20 18:52:48;;;;;;;;;;;;;;;20.08;74.39;98911.41;12202642;19;19926;-81
2023/09/20 18:56:50;;;;;;;;;;;;;;;20.06;72.97;98913.75;12203340;19;19926;-82
2023/09/20 19:00:52;;;;;;;;;;;;;;;20.03;73.41;98904.84;12186430;19;19936;-81
2023/09/20 19:04:54;;;;;;;;;;;;;;;19.99;75.40;98906.69;12204057;19;20244;-82
2023/09/20 19:08:56;;;;;;;;;;;;;;;19.93;75.32;98899.66;12183223;19;19911;-82
2023/09/20 19:12:58;;;;;;;;;;;;;;;19.90;75.68;98896.66;12195793;19;19915;-82
2023/09/20 19:17:00;;;;;;;;;;;;;;;19.86;75.86;98893.72;12200830;19;19914;-82
2023/09/20 19:21:02;;;;;;;;;;;;;;;19.82;75.78;98886.34;12169474;19;19930;-82
2023/09/20 19:25:05;;;;;;;;;;;;;;;19.79;76.36;98896.22;12198792;19;20322;-82
2023/09/20 19:29:07;;;;;;;;;;;;;;;19.75;78.07;98884.06;12199885;19;19934;-82
2023/09/20 19:33:08;;;;;;;;;;;;;;;19.72;78.16;98882.78;12187373;19;20250;-82
2023/09/20 19:37:12;;;;;;;;;;;;;;;19.70;78.35;98887.03;12215180;19;20387;-81
2023/09/20 19:41:14;;;;;;;;;;;;;;;19.68;78.15;98884.56;12209942;19;19918;-82
2023/09/20 19:45:17;;;;;;;;;;;;;;;19.63;78.20;98886.69;12186612;19;19915;-82
2023/09/20 19:49:18;;;;;;;;;;;;;;;19.62;79.03;98885.06;12208699;19;19915;-84
2023/09/20 19:53:23;;;;;;;;;;;;;;;19.59;79.36;98875.34;12209369;19;19910;-80
2023/09/20 19:57:24;;;;;;;;;;;;;;;19.55;80.17;98877.19;12186920;19;20334;-83
2023/09/20 20:01:26;;;;;;;;;;;;;;;19.48;80.30;98869.31;12208416;19;19932;-81
2023/09/20 20:05:28;;;;;;;;;;;;;;;19.48;79.93;98869.31;12207172;19;19911;-80
2023/09/20 20:09:30;;;;;;;;;;;;;;;19.47;81.04;98869.63;12187864;19;20540;-80
2023/09/20 20:13:32;;;;;;;;;;;;;;;19.45;80.61;98869.13;12207879;19;20327;-81
2023/09/20 20:17:36;;;;;;;;;;;;;;;19.41;81.66;98869.00;12206721;19;19931;-82
2023/09/20 20:21:38;;;;;;;;;;;;;;;19.40;81.81;98870.16;12180510;19;19919;-81
2023/09/20 20:25:40;;;;;;;;;;;;;;;19.39;81.94;98870.47;12206117;19;19915;-82
2023/09/20 20:29:41;;;;;;;;;;;;;;;19.37;82.39;98868.03;12208828;19;19911;-86
2023/09/20 20:33:43;;;;;;;;;;;;;;;19.39;82.15;98864.88;12185965;19;19910;-82
2023/09/20 20:37:45;;;;;;;;;;;;;;;19.40;82.09;98866.53;12202562;19;19944;-80
2023/09/20 20:41:50;;;;;;;;;;;;;;;19.37;82.20;98867.22;12216858;19;19911;-84
2023/09/20 20:45:53;;;;;;;;;;;;;;;19.36;82.60;98863.56;12217671;19;19915;-83
2023/09/20 20:49:56;;;;;;;;;;;;;;;19.32;83.11;98857.81;12226325;19;19978;-82
2023/09/20 20:53:58;;;;;;;;;;;;;;;19.29;84.00;98849.28;12182092;19;20358;-81
2023/09/20 20:58:02;;;;;;;;;;;;;;;19.28;83.57;98848.47;12208540;19;19911;-80
2023/09/20 21:02:07;;;;;;;;;;;;;;;19.30;82.72;98850.94;12204937;19;19907;-81
2023/09/20 21:06:13;;;;;;;;;;;;;;;19.27;83.85;98835.66;12184144;19;20337;-81
2023/09/20 21:10:18;;;;;;;;;;;;;;;19.28;83.68;98842.06;12207487;19;19915;-83
2023/09/20 21:14:20;;;;;;;;;;;;;;;19.26;84.05;98838.78;12210316;19;19915;-83
2023/09/20 21:18:23;;;;;;;;;;;;;;;19.21;84.44;98834.19;12184230;19;19978;-80
2023/09/20 21:22:25;;;;;;;;;;;;;;;19.20;83.91;98832.56;12199986;19;20595;-81
2023/09/20 21:26:27;;;;;;;;;;;;;;;19.20;83.77;98832.56;12202742;19;19922;-80